Time;durP1;ratioP1;P1;durP2;ratioP2;P2;SDS_P1;SDS_P2;PMS_P1;PMS_P2;Temp;Humidity;BMP_temperature;BMP_pressure;BME280_temperature;BME280_humidity;BME280_pressure;Samples;Min_cycle;Max_cycle;Signal;HPM_P1;HPM_P2
2021/07/04 00:00:45;;;;;;;6.85;4.63;;;19.30;99.90;;;;;;5032534;28;20391;-72
2021/07/04 00:03:12;;;;;;;7.57;5.03;;;19.30;99.90;;;;;;5033119;28;20081;-72
2021/07/04 00:05:43;;;;;;;6.25;4.43;;;19.30;99.90;;;;;;5032659;28;20045;-73
2021/07/04 00:08:12;;;;;;;6.22;4.60;;;19.30;99.90;;;;;;5014207;28;20087;-72
2021/07/04 00:10:45;;;;;;;9.85;5.47;;;19.20;99.90;;;;;;5032635;28;20029;-71
2021/07/04 00:13:12;;;;;;;6.55;4.53;;;19.20;99.90;;;;;;5015173;28;20071;-72
2021/07/04 00:15:41;;;;;;;8.45;4.88;;;19.10;99.90;;;;;;5032739;28;20024;-72
2021/07/04 00:18:11;;;;;;;6.70;4.65;;;19.10;99.90;;;;;;5014396;28;20506;-72
2021/07/04 00:20:38;;;;;;;6.38;4.57;;;19.10;99.90;;;;;;4999624;28;20040;-72
2021/07/04 00:23:05;;;;;;;7.28;5.18;;;19.00;99.90;;;;;;5015377;28;20029;-72
2021/07/04 00:25:31;;;;;;;9.15;4.95;;;19.10;99.90;;;;;;5032314;28;20372;-72
2021/07/04 00:27:58;;;;;;;7.47;4.35;;;19.00;99.90;;;;;;5015002;28;20102;-72
2021/07/04 00:30:25;;;;;;;7.93;4.80;;;19.10;99.90;;;;;;5014909;28;20613;-72
2021/07/04 00:32:51;;;;;;;7.28;4.88;;;19.10;99.90;;;;;;5014890;28;20037;-72
2021/07/04 00:35:19;;;;;;;6.85;4.88;;;19.10;99.90;;;;;;5014998;28;20025;-73
2021/07/04 00:37:47;;;;;;;7.43;4.53;;;19.00;99.90;;;;;;5032041;28;20505;-72
2021/07/04 00:40:14;;;;;;;7.05;5.10;;;18.90;99.90;;;;;;5014690;28;20026;-72
2021/07/04 00:42:40;;;;;;;9.07;5.13;;;18.80;99.90;;;;;;5030784;28;20119;-73
2021/07/04 00:45:11;;;;;;;7.63;5.00;;;18.80;99.90;;;;;;5014611;28;20029;-73
2021/07/04 00:47:36;;;;;;;7.10;4.60;;;18.80;99.90;;;;;;5014874;28;20037;-72
2021/07/04 00:50:04;;;;;;;7.80;5.05;;;18.70;99.90;;;;;;5032192;28;20483;-72
2021/07/04 00:52:30;;;;;;;7.45;4.60;;;18.70;99.90;;;;;;5014444;28;20029;-73
2021/07/04 00:54:56;;;;;;;9.10;5.88;;;18.70;99.90;;;;;;5014677;28;20033;-73
2021/07/04 00:57:23;;;;;;;7.05;5.40;;;18.70;99.90;;;;;;5014671;28;20021;-73
2021/07/04 00:59:49;;;;;;;9.55;5.15;;;18.70;99.90;;;;;;5014351;28;20514;-72
2021/07/04 01:02:14;;;;;;;7.38;4.97;;;18.60;99.90;;;;;;5031973;28;20060;-72
2021/07/04 01:04:40;;;;;;;9.80;5.72;;;18.70;99.90;;;;;;5031963;28;20057;-72
2021/07/04 01:07:06;;;;;;;6.97;5.00;;;18.60;99.90;;;;;;5010895;28;20041;-72
2021/07/04 01:09:32;;;;;;;8.80;5.43;;;18.60;99.90;;;;;;5010886;28;20041;-72
2021/07/04 01:11:58;;;;;;;6.85;4.75;;;18.60;99.90;;;;;;5011197;28;20025;-72
2021/07/04 01:14:25;;;;;;;9.27;5.05;;;18.60;99.90;;;;;;4994780;28;20069;-72
2021/07/04 01:16:51;;;;;;;7.03;5.05;;;18.60;99.90;;;;;;5011168;28;20034;-72
2021/07/04 01:19:17;;;;;;;6.90;5.13;;;18.60;99.90;;;;;;5013344;28;20034;-72
2021/07/04 01:21:45;;;;;;;9.07;5.70;;;18.60;99.90;;;;;;5014610;28;20386;-73
2021/07/04 01:24:12;;;;;;;9.95;5.20;;;18.60;99.90;;;;;;5015229;28;20034;-73
2021/07/04 01:26:38;;;;;;;7.40;4.82;;;18.50;99.90;;;;;;5016118;28;20383;-72
2021/07/04 01:29:05;;;;;;;8.40;5.15;;;18.50;99.90;;;;;;5014852;28;20030;-72
2021/07/04 01:31:31;;;;;;;8.55;5.20;;;18.40;99.90;;;;;;5015845;28;20112;-73
2021/07/04 01:33:57;;;;;;;7.70;5.05;;;18.40;99.90;;;;;;5016049;28;20102;-73
2021/07/04 01:36:23;;;;;;;6.70;4.85;;;18.40;99.90;;;;;;5014568;28;20178;-72
2021/07/04 01:38:50;;;;;;;8.10;5.43;;;18.30;99.90;;;;;;5015741;28;20040;-72
2021/07/04 01:41:16;;;;;;;9.55;4.97;;;18.40;99.90;;;;;;5014736;28;20040;-72
2021/07/04 01:43:42;;;;;;;9.25;5.38;;;18.30;99.90;;;;;;5015432;28;20030;-72
2021/07/04 01:46:08;;;;;;;8.32;5.80;;;18.20;99.90;;;;;;5015897;28;20088;-73
2021/07/04 01:48:33;;;;;;;8.95;5.50;;;18.20;99.90;;;;;;5015417;28;20537;-73
2021/07/04 01:50:59;;;;;;;11.80;5.75;;;18.20;99.90;;;;;;5015419;28;20038;-73
2021/07/04 01:53:25;;;;;;;8.43;5.30;;;18.20;99.90;;;;;;4998138;28;20072;-74
2021/07/04 01:55:51;;;;;;;8.48;5.55;;;18.20;99.90;;;;;;5015228;28;20382;-73
2021/07/04 01:58:17;;;;;;;9.55;5.57;;;18.20;99.90;;;;;;5014023;28;20491;-73
2021/07/04 02:00:45;;;;;;;9.40;5.68;;;18.20;99.90;;;;;;5015495;28;20033;-73
2021/07/04 02:03:12;;;;;;;10.32;5.20;;;18.20;99.90;;;;;;5015414;28;20116;-73
2021/07/04 02:05:39;;;;;;;8.55;5.47;;;18.10;99.90;;;;;;5020240;28;20056;-73
2021/07/04 02:08:06;;;;;;;8.75;5.57;;;18.10;99.90;;;;;;5017644;28;20084;-72
2021/07/04 02:10:36;;;;;;;9.60;5.55;;;18.10;99.90;;;;;;5017274;28;20022;-72
2021/07/04 02:13:05;;;;;;;8.90;5.55;;;18.10;99.90;;;;;;5017694;28;20108;-72
2021/07/04 02:15:35;;;;;;;8.18;5.32;;;18.10;99.90;;;;;;5017582;28;20462;-72
2021/07/04 02:18:09;;;;;;;11.68;6.10;;;18.00;99.90;;;;;;5017003;28;20048;-72
2021/07/04 02:20:41;;;;;;;8.50;5.22;;;18.00;99.90;;;;;;5034997;28;20030;-72
2021/07/04 02:23:12;;;;;;;7.97;5.45;;;18.00;99.90;;;;;;5034580;28;20033;-72
2021/07/04 02:25:40;;;;;;;9.90;5.18;;;18.00;99.90;;;;;;5016876;28;20066;-72
2021/07/04 02:28:08;;;;;;;8.10;5.57;;;18.00;99.90;;;;;;5034772;28;20045;-72
2021/07/04 02:30:35;;;;;;;8.30;5.32;;;18.00;99.90;;;;;;5033919;28;20026;-73
2021/07/04 02:33:03;;;;;;;9.20;5.93;;;18.00;99.90;;;;;;5016775;28;20120;-72
2021/07/04 02:35:30;;;;;;;7.50;4.90;;;18.00;99.90;;;;;;5017225;28;20080;-72
2021/07/04 02:37:57;;;;;;;7.70;5.47;;;18.00;99.90;;;;;;5016744;28;20410;-72
2021/07/04 02:40:25;;;;;;;6.82;5.00;;;18.00;99.90;;;;;;5017094;28;20095;-72
2021/07/04 02:42:50;;;;;;;8.40;5.50;;;18.00;99.90;;;;;;5016732;28;20478;-72
2021/07/04 02:45:17;;;;;;;9.45;5.90;;;18.00;99.90;;;;;;5016606;28;20041;-72
2021/07/04 02:47:43;;;;;;;9.15;6.00;;;18.10;99.90;;;;;;5034014;28;20025;-72
2021/07/04 02:50:10;;;;;;;8.25;6.30;;;18.00;99.90;;;;;;5016406;28;20480;-73
2021/07/04 02:52:36;;;;;;;7.90;5.75;;;18.00;99.90;;;;;;5016765;28;20041;-73
2021/07/04 02:55:05;;;;;;;9.32;5.53;;;18.00;99.90;;;;;;5034319;28;20175;-72
2021/07/04 02:57:31;;;;;;;11.25;6.32;;;18.00;99.90;;;;;;5016394;28;20394;-72
2021/07/04 02:59:57;;;;;;;9.65;5.55;;;18.10;99.90;;;;;;5033888;28;20441;-73
2021/07/04 03:02:23;;;;;;;8.63;5.50;;;18.00;99.90;;;;;;5033861;28;20021;-73
2021/07/04 03:04:51;;;;;;;7.75;5.63;;;18.10;99.90;;;;;;5033747;28;20045;-73
2021/07/04 03:07:17;;;;;;;9.52;5.70;;;18.10;99.90;;;;;;5016205;28;20513;-73
2021/07/04 03:09:43;;;;;;;9.55;5.30;;;18.10;99.90;;;;;;5015997;28;20040;-73
2021/07/04 03:12:10;;;;;;;8.02;5.53;;;18.00;99.90;;;;;;5033836;28;20030;-73
2021/07/04 03:14:36;;;;;;;9.85;5.90;;;18.00;99.90;;;;;;5033690;28;20414;-72
2021/07/04 03:17:03;;;;;;;9.02;6.10;;;18.00;99.90;;;;;;5016316;28;20063;-73
2021/07/04 03:19:31;;;;;;;7.25;5.28;;;18.00;99.90;;;;;;5032471;28;20362;-73
2021/07/04 03:21:57;;;;;;;8.00;6.18;;;18.00;99.90;;;;;;5033394;28;20040;-73
2021/07/04 03:24:23;;;;;;;8.35;5.45;;;18.00;99.90;;;;;;5032527;28;20038;-73
2021/07/04 03:26:48;;;;;;;7.57;5.57;;;18.00;99.90;;;;;;5015597;28;20091;-73
2021/07/04 03:29:14;;;;;;;8.63;5.25;;;18.00;99.90;;;;;;5033325;28;20030;-72
2021/07/04 03:31:40;;;;;;;7.95;5.40;;;18.00;99.90;;;;;;5015877;28;20037;-73
2021/07/04 03:34:06;;;;;;;9.35;6.00;;;18.00;99.90;;;;;;5015710;28;20036;-73
2021/07/04 03:36:32;;;;;;;8.05;5.65;;;18.00;99.90;;;;;;5015596;28;20512;-73
2021/07/04 03:38:58;;;;;;;8.18;5.35;;;18.10;99.90;;;;;;5015281;28;20410;-72
2021/07/04 03:41:24;;;;;;;8.20;5.35;;;18.10;99.90;;;;;;5033228;28;20025;-72
2021/07/04 03:43:49;;;;;;;7.70;5.05;;;18.20;99.90;;;;;;5032878;28;20037;-72
2021/07/04 03:46:15;;;;;;;10.00;5.72;;;18.20;99.90;;;;;;5015669;28;20037;-72
2021/07/04 03:48:41;;;;;;;7.78;5.68;;;18.10;99.90;;;;;;5032875;28;20030;-71
2021/07/04 03:51:07;;;;;;;13.98;7.00;;;18.00;99.90;;;;;;5033250;28;20378;-72
2021/07/04 03:53:32;;;;;;;7.68;5.45;;;18.10;99.90;;;;;;5033014;28;20091;-73
2021/07/04 03:55:58;;;;;;;11.13;5.53;;;18.00;99.90;;;;;;5032923;28;20036;-63
2021/07/04 03:58:24;;;;;;;11.23;5.85;;;18.00;99.90;;;;;;5032960;28;20052;-63
2021/07/04 04:00:50;;;;;;;15.35;6.00;;;18.10;99.90;;;;;;5030973;28;20033;-62
2021/07/04 04:03:15;;;;;;;8.52;6.25;;;18.10;99.90;;;;;;5032829;28;20049;-63
2021/07/04 04:05:41;;;;;;;10.65;5.95;;;18.10;99.90;;;;;;5032492;28;20072;-63
2021/07/04 04:08:07;;;;;;;7.75;5.28;;;18.10;99.90;;;;;;5033089;28;20037;-62
2021/07/04 04:10:34;;;;;;;11.00;6.13;;;18.20;99.90;;;;;;5029813;28;20048;-62
2021/07/04 04:13:01;;;;;;;7.47;5.35;;;18.20;99.90;;;;;;5031619;28;20643;-62
2021/07/04 04:15:27;;;;;;;11.38;6.22;;;18.30;99.90;;;;;;5032549;28;20368;-63
2021/07/04 04:17:56;;;;;;;7.72;5.30;;;18.30;99.90;;;;;;5014737;28;20490;-63
2021/07/04 04:20:22;;;;;;;8.45;6.07;;;18.20;99.90;;;;;;5031123;28;20037;-63
2021/07/04 04:22:48;;;;;;;10.57;6.57;;;18.20;99.90;;;;;;5032674;28;20030;-63
2021/07/04 04:25:14;;;;;;;9.20;5.93;;;18.20;99.90;;;;;;5032327;28;20037;-63
2021/07/04 04:27:40;;;;;;;8.07;5.40;;;18.30;99.90;;;;;;5032592;28;20103;-63
2021/07/04 04:30:07;;;;;;;8.63;5.75;;;18.30;99.90;;;;;;5025511;28;20030;-63
2021/07/04 04:32:33;;;;;;;10.63;5.53;;;18.20;99.90;;;;;;4995257;28;20026;-63
2021/07/04 04:34:59;;;;;;;10.30;6.03;;;18.30;99.90;;;;;;5012442;28;20624;-63
2021/07/04 04:37:25;;;;;;;8.70;5.28;;;18.30;99.90;;;;;;5012840;28;20026;-63
2021/07/04 04:39:50;;;;;;;8.52;5.80;;;18.30;99.90;;;;;;5012622;28;20041;-63
2021/07/04 04:42:16;;;;;;;8.77;5.88;;;18.30;99.90;;;;;;4994841;28;20030;-62
2021/07/04 04:44:42;;;;;;;9.48;6.00;;;18.40;99.90;;;;;;5012729;28;20554;-64
2021/07/04 04:47:08;;;;;;;8.85;5.57;;;18.40;99.90;;;;;;4994728;28;20553;-63
2021/07/04 04:49:34;;;;;;;9.88;5.30;;;18.40;99.90;;;;;;5012367;28;20026;-63
2021/07/04 04:52:02;;;;;;;11.07;5.97;;;18.40;99.90;;;;;;5012585;28;20038;-64
2021/07/04 04:54:27;;;;;;;8.48;6.10;;;18.40;99.90;;;;;;4986083;28;20033;-63
2021/07/04 04:56:53;;;;;;;9.10;6.05;;;18.30;99.90;;;;;;5001450;28;20374;-62
2021/07/04 04:59:19;;;;;;;8.07;5.55;;;18.30;99.90;;;;;;5019305;28;20037;-63
2021/07/04 05:01:45;;;;;;;7.78;5.68;;;18.40;99.90;;;;;;5038543;28;20041;-62
2021/07/04 05:04:10;;;;;;;11.57;6.57;;;18.50;99.90;;;;;;5038615;28;20116;-63
2021/07/04 05:06:37;;;;;;;9.27;5.80;;;18.40;99.90;;;;;;5038537;28;20129;-63
2021/07/04 05:09:04;;;;;;;9.70;5.95;;;18.50;99.90;;;;;;5038507;28;20033;-63
2021/07/04 05:11:30;;;;;;;11.45;5.95;;;18.60;99.90;;;;;;5038824;28;20386;-63
2021/07/04 05:13:55;;;;;;;8.82;6.00;;;18.50;99.90;;;;;;5038418;28;20040;-63
2021/07/04 05:16:22;;;;;;;9.23;6.20;;;18.50;99.90;;;;;;5038427;28;20128;-62
2021/07/04 05:18:48;;;;;;;10.00;5.90;;;18.30;99.90;;;;;;5038547;28;20164;-63
2021/07/04 05:21:14;;;;;;;12.52;6.10;;;18.50;99.90;;;;;;5038441;28;20475;-62
2021/07/04 05:23:40;;;;;;;9.77;6.53;;;18.60;99.90;;;;;;5038761;28;20034;-62
2021/07/04 05:26:05;;;;;;;11.20;6.03;;;18.60;99.90;;;;;;5038317;28;20022;-62
2021/07/04 05:28:31;;;;;;;8.77;6.00;;;18.60;99.90;;;;;;5038397;28;20033;-62
2021/07/04 05:30:57;;;;;;;9.20;6.28;;;18.50;99.90;;;;;;5038272;28;20027;-62
2021/07/04 05:33:23;;;;;;;10.75;5.97;;;18.50;99.90;;;;;;5038653;28;20053;-63
2021/07/04 05:35:50;;;;;;;10.23;6.30;;;18.50;99.90;;;;;;5038354;28;20053;-62
2021/07/04 05:38:20;;;;;;;12.00;6.80;;;18.60;99.90;;;;;;5038269;28;20052;-64
2021/07/04 05:40:49;;;;;;;9.50;6.32;;;18.70;99.90;;;;;;5020300;28;20025;-63
2021/07/04 05:43:17;;;;;;;10.75;6.47;;;18.90;99.90;;;;;;5037200;28;20041;-63
2021/07/04 05:45:43;;;;;;;10.20;6.80;;;19.10;99.90;;;;;;5036842;28;20486;-63
2021/07/04 05:48:09;;;;;;;10.10;6.78;;;19.20;99.90;;;;;;5038009;28;20129;-63
2021/07/04 05:50:35;;;;;;;11.85;7.10;;;19.30;99.90;;;;;;5038238;28;20033;-63
2021/07/04 05:53:01;;;;;;;9.55;6.72;;;19.30;99.90;;;;;;5038225;28;20116;-63
2021/07/04 05:55:27;;;;;;;9.70;6.60;;;19.40;99.90;;;;;;5038093;28;20048;-63
2021/07/04 05:57:53;;;;;;;9.68;6.65;;;19.40;99.90;;;;;;5037852;28;20021;-63
2021/07/04 06:00:19;;;;;;;12.38;6.35;;;19.40;99.90;;;;;;5029113;28;20046;-63
2021/07/04 06:02:45;;;;;;;10.75;6.57;;;19.60;99.90;;;;;;5018190;28;20033;-64
2021/07/04 06:05:13;;;;;;;11.75;6.45;;;19.60;99.90;;;;;;5016562;28;20030;-63
2021/07/04 06:07:40;;;;;;;9.60;6.38;;;19.60;99.90;;;;;;5014657;28;20442;-63
2021/07/04 06:10:06;;;;;;;10.27;6.72;;;19.50;99.90;;;;;;5015293;28;20026;-63
2021/07/04 06:12:32;;;;;;;9.82;6.43;;;19.50;99.90;;;;;;5014613;28;20037;-62
2021/07/04 06:14:57;;;;;;;11.55;5.88;;;19.60;99.90;;;;;;5014011;28;20030;-63
2021/07/04 06:17:23;;;;;;;10.00;6.50;;;19.60;99.90;;;;;;5014034;28;20088;-63
2021/07/04 06:19:50;;;;;;;11.60;7.78;;;19.60;99.90;;;;;;5012027;28;20069;-63
2021/07/04 06:22:16;;;;;;;8.90;6.30;;;19.70;99.90;;;;;;5033630;28;20037;-63
2021/07/04 06:24:41;;;;;;;10.85;6.68;;;19.60;99.90;;;;;;5034720;28;20036;-63
2021/07/04 06:27:07;;;;;;;10.75;6.50;;;19.70;99.90;;;;;;5034635;28;20026;-63
2021/07/04 06:29:33;;;;;;;10.80;6.32;;;19.70;99.90;;;;;;5033255;28;20475;-64
2021/07/04 06:31:58;;;;;;;10.43;6.38;;;19.80;99.90;;;;;;5034177;28;20398;-64
2021/07/04 06:34:24;;;;;;;9.18;6.03;;;19.70;99.90;;;;;;5034731;28;20029;-64
2021/07/04 06:36:50;;;;;;;9.60;6.10;;;19.80;99.90;;;;;;5034201;28;20041;-64
2021/07/04 06:39:16;;;;;;;9.65;5.97;;;19.90;99.90;;;;;;5016560;28;20037;-63
2021/07/04 06:41:41;;;;;;;8.95;6.18;;;20.00;99.90;;;;;;5034246;28;20048;-63
2021/07/04 06:44:07;;;;;;;10.20;5.93;;;20.20;99.90;;;;;;5034281;28;20026;-63
2021/07/04 06:46:33;;;;;;;8.65;5.97;;;20.20;99.90;;;;;;5034045;28;20060;-63
2021/07/04 06:48:59;;;;;;;9.60;6.70;;;20.30;99.90;;;;;;5034121;28;20036;-63
2021/07/04 06:51:24;;;;;;;12.25;6.55;;;20.30;99.90;;;;;;5033896;28;20393;-63
2021/07/04 06:53:50;;;;;;;8.82;6.00;;;20.30;99.90;;;;;;5034020;28;20037;-63
2021/07/04 06:56:16;;;;;;;10.32;6.65;;;20.20;99.90;;;;;;5033186;28;20505;-63
2021/07/04 06:58:42;;;;;;;9.02;6.40;;;20.30;99.90;;;;;;5033958;28;20037;-62
2021/07/04 07:01:08;;;;;;;9.30;6.30;;;20.40;99.90;;;;;;5025821;28;20034;-62
2021/07/04 07:03:35;;;;;;;12.02;6.45;;;20.50;99.90;;;;;;4996752;28;20040;-71
2021/07/04 07:06:01;;;;;;;9.70;6.03;;;20.60;99.90;;;;;;4996347;28;20037;-72
2021/07/04 07:08:26;;;;;;;12.40;7.15;;;20.70;99.90;;;;;;4996257;28;20133;-72
2021/07/04 07:10:53;;;;;;;9.50;5.93;;;20.50;99.90;;;;;;5014144;28;20092;-72
2021/07/04 07:13:19;;;;;;;8.77;5.93;;;20.60;99.90;;;;;;4980196;28;20041;-72
2021/07/04 07:15:46;;;;;;;7.95;5.35;;;20.50;99.90;;;;;;4996335;28;20034;-72
2021/07/04 07:18:13;;;;;;;8.68;5.70;;;20.60;99.90;;;;;;5013514;28;20046;-72
2021/07/04 07:20:40;;;;;;;11.95;6.13;;;20.70;99.90;;;;;;4996714;28;20030;-72
2021/07/04 07:23:07;;;;;;;9.57;5.70;;;20.90;99.90;;;;;;5013918;28;20117;-72
2021/07/04 07:25:33;;;;;;;8.77;6.03;;;21.00;99.90;;;;;;5013921;28;20030;-72
2021/07/04 07:27:59;;;;;;;8.25;6.20;;;21.00;99.90;;;;;;4996356;28;20068;-73
2021/07/04 07:30:26;;;;;;;9.23;6.25;;;21.00;99.90;;;;;;5012680;28;20034;-69
2021/07/04 07:32:52;;;;;;;9.68;6.25;;;21.00;99.90;;;;;;5013710;28;20487;-69
2021/07/04 07:35:18;;;;;;;10.18;6.47;;;21.30;99.90;;;;;;5013817;28;20033;-68
2021/07/04 07:37:45;;;;;;;8.68;5.55;;;21.30;99.90;;;;;;5013554;28;20467;-69
2021/07/04 07:40:12;;;;;;;11.02;6.72;;;21.50;99.90;;;;;;5013422;28;20034;-70
2021/07/04 07:42:38;;;;;;;10.90;5.95;;;21.60;99.90;;;;;;5013235;28;20517;-69
2021/07/04 07:45:06;;;;;;;9.45;6.25;;;21.80;99.90;;;;;;5013315;28;20030;-67
2021/07/04 07:47:32;;;;;;;11.20;6.88;;;21.80;99.90;;;;;;5013353;28;20080;-73
2021/07/04 07:50:01;;;;;;;9.15;6.63;;;21.70;99.90;;;;;;5013420;28;20081;-74
2021/07/04 07:52:28;;;;;;;10.48;5.90;;;21.80;99.90;;;;;;5013350;28;20352;-74
2021/07/04 07:54:54;;;;;;;11.43;5.78;;;21.60;99.90;;;;;;5012121;28;20111;-74
2021/07/04 07:57:21;;;;;;;8.75;6.28;;;21.80;99.90;;;;;;5013168;28;20506;-73
2021/07/04 07:59:46;;;;;;;10.25;6.18;;;21.90;99.90;;;;;;5013129;28;20049;-75
2021/07/04 08:02:12;;;;;;;9.82;6.50;;;22.10;99.90;;;;;;4995519;28;20044;-74
2021/07/04 08:04:38;;;;;;;9.55;6.63;;;22.10;99.90;;;;;;4995640;28;20068;-73
2021/07/04 08:07:05;;;;;;;8.15;5.90;;;22.30;99.90;;;;;;5011406;28;20125;-73
2021/07/04 08:09:31;;;;;;;9.02;5.07;;;22.40;99.90;;;;;;4995473;28;20080;-74
2021/07/04 08:11:56;;;;;;;7.15;5.15;;;22.50;99.90;;;;;;5012831;28;20399;-74
2021/07/04 08:14:22;;;;;;;7.35;4.97;;;22.50;99.90;;;;;;4995251;28;20037;-74
2021/07/04 08:16:49;;;;;;;7.78;5.07;;;22.40;99.90;;;;;;5015522;28;20026;-74
2021/07/04 08:19:15;;;;;;;9.23;6.50;;;22.60;99.90;;;;;;5012783;28;20037;-75
2021/07/04 08:21:41;;;;;;;15.00;10.40;;;22.80;99.90;;;;;;4995140;28;20415;-74
2021/07/04 08:24:08;;;;;;;10.25;5.68;;;22.90;99.90;;;;;;5012899;28;20120;-73
2021/07/04 08:26:34;;;;;;;9.52;5.82;;;22.80;99.90;;;;;;5012848;28;20052;-75
2021/07/04 08:29:00;;;;;;;9.55;6.47;;;22.70;99.90;;;;;;5011995;28;20132;-68
2021/07/04 08:31:27;;;;;;;6.75;4.85;;;22.80;99.90;;;;;;5023896;28;20088;-70
2021/07/04 08:33:54;;;;;;;9.13;5.15;;;22.70;99.90;;;;;;5031123;28;20045;-69
2021/07/04 08:36:21;;;;;;;8.98;6.05;;;22.70;99.90;;;;;;5032084;28;20025;-70
2021/07/04 08:38:47;;;;;;;8.40;5.65;;;23.00;99.90;;;;;;5029816;28;20661;-70
2021/07/04 08:41:14;;;;;;;7.05;5.05;;;23.30;99.90;;;;;;5031789;28;20036;-70
2021/07/04 08:43:40;;;;;;;6.75;5.03;;;23.40;99.90;;;;;;5032396;28;20044;-70
2021/07/04 08:46:09;;;;;;;10.85;6.13;;;23.30;99.90;;;;;;5031931;28;20021;-70
2021/07/04 08:48:37;;;;;;;6.93;5.20;;;23.40;99.90;;;;;;5030880;28;20030;-70
2021/07/04 08:51:07;;;;;;;7.95;4.63;;;23.30;99.90;;;;;;5030704;28;20029;-70
2021/07/04 08:53:33;;;;;;;6.32;4.70;;;23.40;99.90;;;;;;5013842;28;20103;-70
2021/07/04 08:56:00;;;;;;;7.57;5.63;;;23.40;99.90;;;;;;5031822;28;20478;-70
2021/07/04 08:58:27;;;;;;;7.32;4.97;;;23.50;99.90;;;;;;5032189;28;20124;-70
2021/07/04 09:01:13;;;;;;;7.00;4.93;;;23.40;99.90;;;;;;5031032;28;20033;-70
2021/07/04 09:03:46;;;;;;;9.25;4.93;;;23.30;99.90;;;;;;5030757;28;20455;-71
2021/07/04 09:06:13;;;;;;;9.20;4.88;;;23.30;99.90;;;;;;5026519;28;20042;-70
2021/07/04 09:08:39;;;;;;;7.97;5.45;;;23.30;99.90;;;;;;5027515;28;20084;-70
2021/07/04 09:11:24;;;;;;;9.25;5.55;;;23.10;99.90;;;;;;5012280;28;20038;-70
2021/07/04 09:13:51;;;;;;;9.82;5.32;;;23.30;99.90;;;;;;5012248;28;20071;-70
2021/07/04 09:16:20;;;;;;;8.68;4.97;;;23.50;99.90;;;;;;5027126;28;20613;-70
2021/07/04 09:19:10;;;;;;;6.72;4.68;;;23.50;99.90;;;;;;5012088;28;20382;-70
2021/07/04 09:21:37;;;;;;;5.33;4.20;;;23.50;99.90;;;;;;5011198;28;20092;-70
2021/07/04 09:24:23;;;;;;;8.10;4.50;;;23.20;99.90;;;;;;4994329;28;20030;-70
2021/07/04 09:26:49;;;;;;;7.50;4.82;;;23.30;99.90;;;;;;5012441;28;20115;-70
2021/07/04 09:29:15;;;;;;;6.70;4.78;;;23.10;99.90;;;;;;5011890;28;20073;-70
2021/07/04 09:31:41;;;;;;;9.55;4.85;;;23.10;99.90;;;;;;5027089;28;20053;-71
2021/07/04 09:34:10;;;;;;;6.68;4.90;;;23.10;99.90;;;;;;5011684;28;20407;-70
2021/07/04 09:36:40;;;;;;;7.15;5.18;;;23.30;99.90;;;;;;5011967;28;20033;-70
2021/07/04 09:39:22;;;;;;;14.52;7.00;;;23.10;99.90;;;;;;5027111;28;20034;-70
2021/07/04 09:42:10;;;;;;;9.57;5.68;;;23.00;99.90;;;;;;5030882;28;20422;-70
2021/07/04 09:44:38;;;;;;;9.07;5.82;;;23.40;99.90;;;;;;5030230;28;20029;-70
2021/07/04 09:47:20;;;;;;;8.50;6.20;;;23.60;99.90;;;;;;5030467;28;20017;-71
2021/07/04 09:49:48;;;;;;;8.32;5.22;;;23.70;99.90;;;;;;5014329;28;20034;-71
2021/07/04 09:52:22;;;;;;;8.88;5.53;;;23.90;99.90;;;;;;5015607;28;20030;-71
2021/07/04 09:55:03;;;;;;;8.07;5.68;;;23.90;99.90;;;;;;5030536;28;20033;-70
2021/07/04 09:58:20;;;;;;;8.90;4.90;;;23.90;99.90;;;;;;5014339;28;20037;-71
2021/07/04 10:00:46;;;;;;;9.70;5.90;;;24.20;99.90;;;;;;5030488;28;20038;-70
2021/07/04 10:03:22;;;;;;;8.27;5.32;;;24.40;99.90;;;;;;5015330;28;20025;-70
2021/07/04 10:05:54;;;;;;;6.78;5.00;;;24.10;99.90;;;;;;5021502;28;20494;-71
2021/07/04 10:08:24;;;;;;;6.35;4.47;;;23.90;99.90;;;;;;5034820;28;20041;-71
2021/07/04 10:10:59;;;;;;;7.53;5.15;;;24.30;99.90;;;;;;5017415;28;20532;-71
2021/07/04 10:13:26;;;;;;;5.30;3.75;;;24.40;99.90;;;;;;5031440;28;20577;-70
2021/07/04 10:15:52;;;;;;;6.40;4.53;;;24.60;99.90;;;;;;5034945;28;20087;-70
2021/07/04 10:18:20;;;;;;;5.45;3.70;;;24.50;99.90;;;;;;5033248;28;20030;-69
2021/07/04 10:20:48;;;;;;;6.40;3.72;;;24.80;99.90;;;;;;5033521;28;20041;-70
2021/07/04 10:23:18;;;;;;;4.68;3.28;;;24.90;99.90;;;;;;5034533;28;20037;-69
2021/07/04 10:25:45;;;;;;;6.97;3.42;;;24.90;99.90;;;;;;5033909;28;20026;-70
2021/07/04 10:28:19;;;;;;;3.80;2.60;;;25.00;99.90;;;;;;5033583;28;20033;-71
2021/07/04 10:30:49;;;;;;;5.50;2.80;;;25.20;99.90;;;;;;5033385;28;20037;-70
2021/07/04 10:33:32;;;;;;;6.10;3.88;;;25.40;99.90;;;;;;5034873;28;20037;-70
2021/07/04 10:36:14;;;;;;;4.10;2.50;;;25.50;99.90;;;;;;5033421;28;20041;-70
2021/07/04 10:38:55;;;;;;;3.88;2.50;;;25.80;99.90;;;;;;5034539;28;20037;-70
2021/07/04 10:41:27;;;;;;;3.20;2.42;;;25.70;99.90;;;;;;5034202;28;20041;-70
2021/07/04 10:44:02;;;;;;;4.57;2.58;;;25.50;99.90;;;;;;5034629;28;20136;-71
2021/07/04 10:46:43;;;;;;;4.25;3.10;;;25.40;99.90;;;;;;5034374;28;20075;-70
2021/07/04 10:49:22;;;;;;;3.97;2.83;;;25.10;99.90;;;;;;5034101;28;20053;-71
2021/07/04 10:52:18;;;;;;;5.55;2.70;;;25.20;99.90;;;;;;5033343;28;20033;-70
2021/07/04 10:54:47;;;;;;;4.25;2.78;;;25.10;99.90;;;;;;5034311;28;20064;-69
2021/07/04 10:57:35;;;;;;;4.95;2.78;;;24.90;99.90;;;;;;5034146;28;20094;-71
2021/07/04 11:00:04;;;;;;;4.68;2.78;;;24.90;99.90;;;;;;5033020;28;20040;-70
2021/07/04 11:02:50;;;;;;;4.00;2.90;;;24.70;99.90;;;;;;5033766;28;20045;-71
2021/07/04 11:05:38;;;;;;;5.82;2.63;;;24.60;99.90;;;;;;5033822;28;20105;-71
2021/07/04 11:08:14;;;;;;;3.85;2.60;;;24.50;99.90;;;;;;5012713;28;20049;-71
2021/07/04 11:11:00;;;;;;;5.10;3.10;;;24.30;99.90;;;;;;5032765;28;20045;-69
2021/07/04 11:13:41;;;;;;;4.13;2.70;;;24.30;99.90;;;;;;5033950;28;20033;-70
2021/07/04 11:16:20;;;;;;;5.88;3.30;;;24.40;99.90;;;;;;5015729;28;20029;-70
2021/07/04 11:19:04;;;;;;;4.65;3.00;;;24.30;99.90;;;;;;5032742;28;20084;-71
2021/07/04 11:21:54;;;;;;;3.83;2.80;;;24.30;99.90;;;;;;5032245;28;20033;-71
2021/07/04 11:24:24;;;;;;;5.28;3.70;;;24.20;99.90;;;;;;5015804;28;20041;-71
2021/07/04 11:27:24;;;;;;;4.80;3.70;;;23.80;99.90;;;;;;5032244;28;20049;-70
2021/07/04 11:30:23;;;;;;;4.70;3.20;;;23.60;99.90;;;;;;5032567;28;20034;-70
2021/07/04 11:33:09;;;;;;;7.07;4.38;;;23.40;99.90;;;;;;5033657;28;20030;-70
2021/07/04 11:35:42;;;;;;;6.35;4.50;;;23.40;99.90;;;;;;5032015;28;20033;-70
2021/07/04 11:38:17;;;;;;;7.45;4.53;;;23.30;99.90;;;;;;5033437;28;20072;-71
2021/07/04 11:40:44;;;;;;;6.85;5.35;;;23.30;99.90;;;;;;5033027;28;20140;-70
2021/07/04 11:43:24;;;;;;;7.88;4.90;;;23.10;99.90;;;;;;5033281;28;20382;-76
2021/07/04 11:45:57;;;;;;;8.35;5.38;;;23.00;99.90;;;;;;5032080;28;20056;-76
2021/07/04 11:49:03;;;;;;;9.23;5.38;;;23.00;99.90;;;;;;5032092;28;20084;-75
2021/07/04 11:51:48;;;;;;;8.23;5.63;;;23.00;99.90;;;;;;5032010;28;20823;-82
2021/07/04 11:54:31;;;;;;;7.20;4.90;;;23.10;99.90;;;;;;5032830;28;20398;-74
2021/07/04 11:59:56;;;;;;;8.23;5.22;;;23.00;99.90;;;;;;5032640;28;20049;-76
2021/07/04 12:02:23;;;;;;;8.98;5.22;;;22.80;99.90;;;;;;5031644;28;20099;-75
2021/07/04 12:04:48;;;;;;;7.10;4.88;;;22.80;99.90;;;;;;5032189;28;20033;-76
2021/07/04 12:07:20;;;;;;;6.35;4.20;;;22.90;99.90;;;;;;5032332;28;20077;-77
2021/07/04 12:09:51;;;;;;;8.73;5.25;;;22.90;99.90;;;;;;5032881;28;20037;-76
2021/07/04 12:12:31;;;;;;;7.50;5.00;;;22.80;99.90;;;;;;5032559;28;20049;-76
2021/07/04 12:15:09;;;;;;;6.90;5.20;;;22.60;99.90;;;;;;5031313;28;20119;-76
2021/07/04 12:17:45;;;;;;;7.68;5.50;;;22.40;99.90;;;;;;5029280;28;20038;-76
2021/07/04 12:20:26;;;;;;;7.18;5.40;;;22.30;99.90;;;;;;5032411;28;20044;-75
2021/07/04 12:23:03;;;;;;;5.15;3.22;;;22.10;99.90;;;;;;5031147;28;20620;-74
2021/07/04 12:25:42;;;;;;;5.32;2.00;;;21.50;99.90;;;;;;5031194;28;20608;-75
2021/07/04 12:28:27;;;;;;;3.22;1.92;;;20.70;99.90;;;;;;5032769;28;20037;-75
2021/07/04 12:30:53;;;;;;;3.45;2.10;;;20.40;99.90;;;;;;5015002;28;20040;-68
2021/07/04 12:33:24;;;;;;;3.15;1.80;;;20.20;99.90;;;;;;5014696;28;20029;-68
2021/07/04 12:36:00;;;;;;;2.45;1.45;;;20.20;99.90;;;;;;5032544;28;20072;-70
2021/07/04 12:38:37;;;;;;;1.92;1.25;;;20.30;99.90;;;;;;5032430;28;20029;-68
2021/07/04 12:41:13;;;;;;;1.80;1.08;;;20.30;99.90;;;;;;5032440;28;20061;-66
2021/07/04 12:43:45;;;;;;;2.83;1.40;;;20.40;99.90;;;;;;5032611;28;20055;-67
2021/07/04 12:46:27;;;;;;;3.65;1.60;;;20.30;99.90;;;;;;5032261;28;20048;-66
2021/07/04 12:48:55;;;;;;;3.25;1.52;;;19.80;99.90;;;;;;5032626;28;20041;-68
2021/07/04 12:51:34;;;;;;;3.40;1.95;;;19.50;99.90;;;;;;5032184;28;20025;-68
2021/07/04 12:54:01;;;;;;;3.95;1.77;;;19.30;99.90;;;;;;5030846;28;20033;-67
2021/07/04 12:56:33;;;;;;;3.92;2.05;;;19.20;99.90;;;;;;5030857;28;20496;-67
2021/07/04 12:59:07;;;;;;;5.65;2.08;;;19.00;99.90;;;;;;5031906;28;20041;-71